Back to Top

My Weather Underground Personal Weather Station Historical Data with Graphs...

Delerius Weather Station Historical Data
 
Daily Summary for June 20, 2021 Units:  English    Metric   Both
Daily Weekly Monthly Yearly
  Current: High: Low: Average:
Temperature: 60.4 °F 61 °F 52.2 °F 55.4 °F
Dew Point: 50.2 °F 52.2 °F 49.6 °F 50.9 °F
Humidity: 69% 95% 67.7% 86%
Wind Speed: 6.6mph 8mph 0.8mph 5.5mph
Wind Gust: 11mph 15mph - -
WindENE - - NE
Pressure: 29.9 in 29.9 in 29.9 in -
Precipitation: 0.05 in      
 
 
Tabular Data for June 20, 2021
Time Temperature Dew Point Pressure Wind Wind Speed Wind Gust Humidity Rainfall Rate (Hourly) solar
00:04 53.2 °F 51.1 °F 29.9 in ENE 6 mph 9 mph 92% 0 in 0 W/m2
00:09 53.2 °F 51.1 °F 29.9 in ENE 5.9 mph 9 mph 92% 0 in 0 W/m2
00:14 53.2 °F 51.1 °F 29.9 in East 6.4 mph 10 mph 92% 0 in 0 W/m2
00:19 53.2 °F 51.1 °F 29.9 in East 6.2 mph 10 mph 92% 0 in 0 W/m2
00:24 53.2 °F 51.1 °F 29.9 in East 6.5 mph 10 mph 92% 0 in 0 W/m2
00:29 53.2 °F 51.1 °F 29.9 in East 6.1 mph 10 mph 92% 0 in 0 W/m2
00:34 53.2 °F 50.9 °F 29.9 in East 6.3 mph 10 mph 92% 0 in 0 W/m2
00:39 53.1 °F 50.7 °F 29.9 in East 7.8 mph 11 mph 92% 0 in 0 W/m2
00:44 53.1 °F 50.7 °F 29.9 in East 7 mph 12 mph 92% 0 in 0 W/m2
00:49 52.9 °F 50.5 °F 29.9 in ENE 7.5 mph 12 mph 92% 0 in 0 W/m2
00:54 52.9 °F 50.5 °F 29.9 in East 6.6 mph 10 mph 92% 0 in 0 W/m2
00:59 52.9 °F 50.5 °F 29.9 in ENE 6 mph 10 mph 92% 0 in 0 W/m2
01:04 52.7 °F 50.4 °F 29.9 in ENE 6.3 mph 10 mph 92% 0 in 0 W/m2
01:09 52.7 °F 50.4 °F 29.9 in ENE 6.2 mph 10 mph 92% 0.01 in 0 W/m2
01:14 52.7 °F 50.4 °F 29.9 in East 5.5 mph 10 mph 92% 0.02 in 0 W/m2
01:19 52.5 °F 50.4 °F 29.9 in East 5.8 mph 10 mph 92% 0.02 in 0 W/m2
01:24 52.5 °F 50.4 °F 29.9 in East 5.5 mph 9 mph 92% 0.02 in 0 W/m2
01:29 52.5 °F 50.2 °F 29.9 in East 5.4 mph 9 mph 92% 0.02 in 0 W/m2
01:34 52.3 °F 50.2 °F 29.9 in East 4.9 mph 8 mph 92.3% 0.02 in 0 W/m2
01:39 52.3 °F 50.2 °F 29.9 in East 5.2 mph 9 mph 92.1% 0.03 in 0 W/m2
01:44 52.3 °F 50.4 °F 29.9 in East 5.3 mph 9 mph 92.8% 0.03 in 0 W/m2
01:49 52.3 °F 50.4 °F 29.9 in East 4.8 mph 8 mph 93% 0.03 in 0 W/m2
01:54 52.3 °F 50.4 °F 29.9 in East 3 mph 7 mph 93% 0.03 in 0 W/m2
01:59 52.3 °F 50.4 °F 29.9 in East 1.6 mph 6 mph 93% 0.03 in 0 W/m2
02:04 52.3 °F 50.4 °F 29.9 in East 1 mph 5 mph 93% 0.04 in 0 W/m2
02:09 52.3 °F 50.4 °F 29.9 in East 2.4 mph 7 mph 93% 0.03 in 0 W/m2
02:14 52.3 °F 50.4 °F 29.9 in East 4.3 mph 7 mph 93% 0.02 in 0 W/m2
02:19 52.3 °F 50.4 °F 29.9 in East 3.4 mph 7 mph 93% 0.02 in 0 W/m2
02:24 52.3 °F 50.7 °F 29.9 in East 3.9 mph 7 mph 94% 0.02 in 0 W/m2
02:29 52.3 °F 50.7 °F 29.9 in East 2.2 mph 6 mph 94% 0.02 in 0 W/m2
02:34 52.3 °F 50.7 °F 29.9 in East 1.8 mph 6 mph 94% 0.02 in 0 W/m2
02:39 52.3 °F 50.7 °F 29.9 in ENE 2.7 mph 7 mph 94% 0.01 in 0 W/m2
02:44 52.3 °F 50.7 °F 29.9 in ENE 1.9 mph 6 mph 94% 0.01 in 0 W/m2
02:49 52.3 °F 50.7 °F 29.9 in East 0.8 mph 5 mph 94% 0.01 in 0 W/m2
02:54 52.3 °F 50.7 °F 29.9 in ENE 1.6 mph 5 mph 94% 0.01 in 0 W/m2
02:59 52.3 °F 50.7 °F 29.9 in NE 1.8 mph 5 mph 94% 0.01 in 0 W/m2
03:04 52.3 °F 50.7 °F 29.9 in NE 2.1 mph 7 mph 94% 0.01 in 0 W/m2
03:09 52.3 °F 50.7 °F 29.9 in ENE 2.6 mph 7 mph 94% 0 in 0 W/m2
03:14 52.5 °F 50.7 °F 29.9 in ENE 1.1 mph 5 mph 94% 0 in 0 W/m2
03:19 52.5 °F 50.7 °F 29.9 in ENE 1.6 mph 5 mph 94% 0 in 0 W/m2
03:24 52.5 °F 50.7 °F 29.9 in East 1.7 mph 5 mph 94% 0 in 0 W/m2
03:29 52.5 °F 50.7 °F 29.9 in NE 2.5 mph 8 mph 94% 0 in 0 W/m2
03:34 52.5 °F 50.7 °F 29.9 in NE 3.8 mph 8 mph 94% 0.01 in 0 W/m2
03:39 52.5 °F 50.7 °F 29.9 in NE 4.3 mph 8 mph 94% 0.01 in 0 W/m2
03:44 52.5 °F 50.7 °F 29.9 in NE 4.2 mph 10 mph 94% 0.01 in 0 W/m2
03:49 52.5 °F 50.7 °F 29.9 in NE 5.6 mph 10 mph 94% 0.01 in 0 W/m2
03:54 52.5 °F 50.9 °F 29.9 in NE 6.1 mph 10 mph 94.5% 0.01 in 0 W/m2
03:59 52.5 °F 51.1 °F 29.9 in NE 6.5 mph 13 mph 95% 0.01 in 0 W/m2
04:04 52.5 °F 51.1 °F 29.9 in NE 6.7 mph 13 mph 95% 0.01 in 0 W/m2
04:09 52.5 °F 51.1 °F 29.9 in NE 7 mph 15 mph 95% 0.01 in 0 W/m2
04:14 52.5 °F 50.9 °F 29.9 in NE 6.1 mph 11 mph 94.4% 0.01 in 0 W/m2
04:19 52.5 °F 50.7 °F 29.9 in NE 5.5 mph 12 mph 94% 0.01 in 0 W/m2
04:24 52.3 °F 50.9 °F 29.9 in NE 5.5 mph 10 mph 94.7% 0.01 in 0 W/m2
04:29 52.3 °F 51.1 °F 29.9 in NE 5.7 mph 12 mph 95% 0.01 in 0 W/m2
04:34 52.3 °F 51.1 °F 29.9 in NE 4.8 mph 9 mph 95% 0.01 in 0 W/m2
04:39 52.3 °F 51.1 °F 29.9 in NE 4.9 mph 9 mph 95% 0 in 0 W/m2
04:44 52.3 °F 50.9 °F 29.9 in NE 4.6 mph 9 mph 95% 0 in 0 W/m2
04:49 52.2 °F 50.7 °F 29.9 in NE 4.7 mph 9 mph 95% 0 in 0 W/m2
04:54 52.2 °F 50.7 °F 29.9 in NE 3.9 mph 9 mph 95% 0 in 0 W/m2
04:59 52.2 °F 50.9 °F 29.9 in NE 4.7 mph 10 mph 95% 0 in 0 W/m2
05:04 52.2 °F 50.7 °F 29.9 in NE 3.6 mph 9 mph 95% 0 in 0 W/m2
05:09 52.3 °F 50.9 °F 29.9 in NE 3.4 mph 8 mph 95% 0 in 0 W/m2
05:14 52.3 °F 51.1 °F 29.9 in NE 4.8 mph 10 mph 95% 0 in 0 W/m2
05:19 52.3 °F 51.1 °F 29.9 in NE 5.1 mph 10 mph 95% 0 in 0 W/m2
05:24 52.3 °F 51.1 °F 29.9 in NE 4.6 mph 8 mph 95% 0 in 0 W/m2
05:29 52.3 °F 51.1 °F 29.9 in NE 3.2 mph 7 mph 95% 0 in 0 W/m2
05:34 52.3 °F 51.1 °F 29.9 in NE 3.7 mph 7 mph 95% 0 in 0 W/m2
05:39 52.3 °F 51.1 °F 29.9 in NE 4.2 mph 7 mph 95% 0 in 5 W/m2
05:44 52.3 °F 51.1 °F 29.9 in NNE 4.5 mph 9 mph 95% 0 in 9 W/m2
05:49 52.3 °F 51.1 °F 29.9 in NNE 5 mph 9 mph 95% 0 in 19 W/m2
05:54 52.3 °F 51.1 °F 29.9 in NNE 4.7 mph 7 mph 95% 0 in 21 W/m2
05:59 52.3 °F 51.1 °F 29.9 in NNE 4.9 mph 9 mph 95% 0 in 23 W/m2
06:04 52.3 °F 51.1 °F 29.9 in NNE 3.5 mph 7 mph 95% 0 in 37 W/m2
06:09 52.3 °F 51.1 °F 29.9 in NNE 4.3 mph 8 mph 95% 0 in 42 W/m2
06:14 52.3 °F 51.1 °F 29.9 in NE 3.4 mph 9 mph 95% 0 in 46 W/m2
06:19 52.3 °F 51.1 °F 29.9 in NE 2.5 mph 7 mph 95% 0 in 44 W/m2
06:24 52.3 °F 51.1 °F 29.9 in NE 4.3 mph 9 mph 95% 0 in 47 W/m2
06:29 52.3 °F 51.1 °F 29.9 in NNE 6.3 mph 11 mph 95% 0 in 51 W/m2
06:34 52.3 °F 51.1 °F 29.9 in NNE 4.6 mph 11 mph 95% 0 in 49 W/m2
06:39 52.5 °F 51.1 °F 29.9 in NNE 6.3 mph 11 mph 95% 0 in 62 W/m2
06:44 52.5 °F 51.1 °F 29.9 in NNE 5.7 mph 9 mph 95% 0 in 58 W/m2
06:49 52.5 °F 51.1 °F 29.9 in NNE 4.7 mph 9 mph 95% 0 in 58 W/m2
06:54 52.5 °F 51.1 °F 29.9 in NNE 5.8 mph 11 mph 95% 0 in 62 W/m2
06:59 52.5 °F 51.1 °F 29.9 in NE 5 mph 9 mph 95% 0 in 69 W/m2
07:04 52.7 °F 51.3 °F 29.9 in NNE 5.5 mph 9 mph 95% 0 in 72 W/m2
07:09 52.7 °F 51.3 °F 29.9 in NNE 6 mph 10 mph 95% 0 in 74 W/m2
07:14 52.7 °F 51.3 °F 29.9 in NNE 6.5 mph 9 mph 95% 0 in 76 W/m2
07:19 52.7 °F 51.3 °F 29.9 in NNE 6.5 mph 10 mph 95% 0 in 93 W/m2
07:24 52.9 °F 51.4 °F 29.9 in NNE 6.3 mph 11 mph 95% 0 in 107 W/m2
07:29 52.9 °F 51.4 °F 29.9 in NNE 6.2 mph 11 mph 95% 0 in 120 W/m2
07:34 52.9 °F 51.4 °F 29.9 in NNE 6.1 mph 11 mph 94.6% 0 in 118 W/m2
07:39 53.1 °F 51.4 °F 29.9 in NNE 5.8 mph 9 mph 94.4% 0 in 120 W/m2
07:44 53.2 °F 51.6 °F 29.9 in NNE 4.9 mph 10 mph 94.6% 0 in 109 W/m2
07:49 53.2 °F 51.8 °F 29.9 in NNE 6.2 mph 9 mph 95% 0 in 118 W/m2
07:54 53.2 °F 51.6 °F 29.9 in NNE 6.7 mph 11 mph 94% 0 in 120 W/m2
07:59 53.2 °F 51.6 °F 29.9 in NE 5.7 mph 9 mph 94% 0 in 130 W/m2
08:04 53.4 °F 51.6 °F 29.9 in NE 5.1 mph 10 mph 94% 0 in 127 W/m2
08:09 53.4 °F 51.6 °F 29.9 in NNE 6.9 mph 11 mph 94% 0 in 128 W/m2
08:14 53.4 °F 51.6 °F 29.9 in NNE 7 mph 11 mph 94% 0 in 142 W/m2
08:19 53.4 °F 51.8 °F 29.9 in NNE 7 mph 11 mph 94% 0 in 169 W/m2
08:24 53.8 °F 52 °F 29.9 in NE 5.5 mph 11 mph 94% 0 in 190 W/m2
08:29 54 °F 52.2 °F 29.9 in NE 6.6 mph 10 mph 93.7% 0 in 199 W/m2
08:34 54 °F 52 °F 29.9 in NE 6.2 mph 13 mph 93% 0 in 193 W/m2
08:39 54 °F 52 °F 29.9 in NE 6.7 mph 13 mph 93% 0 in 178 W/m2
08:44 54 °F 51.8 °F 29.9 in NE 7 mph 12 mph 92.1% 0 in 155 W/m2
08:49 54 °F 51.8 °F 29.9 in NE 5.8 mph 10 mph 92% 0 in 146 W/m2
08:54 54.1 °F 52 °F 29.9 in NE 5.2 mph 10 mph 92% 0 in 146 W/m2
08:59 54.1 °F 51.6 °F 29.9 in NE 5.9 mph 11 mph 91.3% 0 in 137 W/m2
09:04 54.3 °F 51.6 °F 29.9 in NE 4.5 mph 11 mph 91% 0 in 127 W/m2
09:09 54.3 °F 51.6 °F 29.9 in NE 5.7 mph 11 mph 90.6% 0 in 127 W/m2
09:14 54.3 °F 51.4 °F 29.9 in NE 4.8 mph 9 mph 90% 0 in 149 W/m2
09:19 54.3 °F 51.4 °F 29.9 in NE 5.5 mph 11 mph 90% 0 in 160 W/m2
09:24 54.3 °F 51.3 °F 29.9 in NE 4.6 mph 10 mph 89.4% 0 in 179 W/m2
09:29 54.5 °F 51.3 °F 29.9 in NE 3.8 mph 8 mph 89% 0 in 207 W/m2
09:34 54.9 °F 51.6 °F 29.9 in NNE 5.7 mph 11 mph 89% 0 in 232 W/m2
09:39 55 °F 51.8 °F 29.9 in NNE 5.8 mph 11 mph 88.9% 0 in 269 W/m2
09:44 55 °F 51.8 °F 29.9 in NE 4.5 mph 9 mph 88.5% 0 in 297 W/m2
09:49 55.4 °F 52 °F 29.9 in NNE 6.1 mph 10 mph 88% 0 in 320 W/m2
09:54 55.8 °F 52 °F 29.9 in NE 6 mph 12 mph 87.3% 0 in 329 W/m2
09:59 55.9 °F 51.8 °F 29.9 in NE 6.5 mph 11 mph 86.5% 0 in 366 W/m2
10:04 56.1 °F 52 °F 29.9 in NNE 7.3 mph 12 mph 86% 0 in 376 W/m2
10:09 56.5 °F 52 °F 29.9 in NNE 7.9 mph 13 mph 85.3% 0 in 406 W/m2
10:14 56.5 °F 51.8 °F 29.9 in NNE 8 mph 13 mph 84.2% 0 in 427 W/m2
10:19 56.5 °F 51.4 °F 29.9 in NNE 7.7 mph 12 mph 83.2% 0 in 381 W/m2
10:24 56.5 °F 51.4 °F 29.9 in NNE 6.6 mph 13 mph 82.8% 0 in 265 W/m2
10:29 56.5 °F 51.3 °F 29.9 in NNE 6.8 mph 13 mph 82.8% 0 in 253 W/m2
10:34 56.5 °F 51.4 °F 29.9 in NE 6.3 mph 11 mph 83% 0 in 251 W/m2
10:39 56.5 °F 51.1 °F 29.9 in NE 6.3 mph 11 mph 82.1% 0 in 269 W/m2
10:44 56.5 °F 51.4 °F 29.9 in NE 5.2 mph 10 mph 82.9% 0 in 264 W/m2
10:49 56.7 °F 51.6 °F 29.9 in NE 4.3 mph 11 mph 82.8% 0 in 329 W/m2
10:54 56.7 °F 50.9 °F 29.9 in NE 7 mph 11 mph 80.6% 0 in 345 W/m2
10:59 56.8 °F 50.7 °F 29.9 in NE 6.8 mph 12 mph 79.8% 0 in 339 W/m2
11:04 57 °F 50.5 °F 29.9 in NE 5.9 mph 11 mph 79% 0 in 327 W/m2
11:09 57.2 °F 50.7 °F 29.9 in NE 5.7 mph 11 mph 79% 0 in 281 W/m2
11:14 57.2 °F 50.7 °F 29.9 in NNE 7.6 mph 13 mph 79.1% 0 in 209 W/m2
11:19 56.8 °F 50.4 °F 29.9 in NNE 7.1 mph 12 mph 78.7% 0 in 258 W/m2
11:24 56.8 °F 50.9 °F 29.9 in NE 6.2 mph 10 mph 80.3% 0 in 302 W/m2
11:29 56.8 °F 50.7 °F 29.9 in NE 5.7 mph 11 mph 79.9% 0 in 355 W/m2
11:34 57 °F 51.1 °F 29.9 in NNE 6.3 mph 10 mph 80.4% 0 in 376 W/m2
11:39 57.4 °F 51.4 °F 29.9 in NE 5 mph 10 mph 80.3% 0 in 434 W/m2
11:44 57.6 °F 51.1 °F 29.9 in NNE 6.3 mph 11 mph 79.2% 0 in 503 W/m2
11:49 57.7 °F 51.3 °F 29.9 in NNE 7.3 mph 13 mph 78.6% 0 in 575 W/m2
11:54 58.1 °F 51.4 °F 29.9 in NNE 7.2 mph 12 mph 78.4% 0 in 628 W/m2
11:59 58.5 °F 51.6 °F 29.9 in NNE 6.2 mph 12 mph 78% 0 in 628 W/m2
12:04 58.8 °F 52 °F 29.9 in NE 4.7 mph 12 mph 77.6% 0 in 633 W/m2
12:09 59.2 °F 51.6 °F 29.9 in ENE 6.6 mph 12 mph 75.9% 0 in 599 W/m2
12:14 59.2 °F 51.1 °F 29.9 in ENE 7.2 mph 12 mph 74.6% 0 in 613 W/m2
12:19 59.2 °F 51.3 °F 29.9 in ENE 6.3 mph 10 mph 74.9% 0 in 522 W/m2
12:24 59.2 °F 51.1 °F 29.9 in NE 7 mph 13 mph 74.5% 0 in 512 W/m2
12:29 59.2 °F 50.5 °F 29.9 in ENE 7.3 mph 13 mph 73% 0 in 552 W/m2
12:34 59.2 °F 50.7 °F 29.9 in NE 5.5 mph 11 mph 73.3% 0 in 575 W/m2
12:39 59.4 °F 50.5 °F 29.9 in NE 6 mph 14 mph 72.8% 0 in 564 W/m2
12:44 59.4 °F 49.8 °F 29.9 in East 7.2 mph 11 mph 70.6% 0 in 577 W/m2
12:49 59.4 °F 49.8 °F 29.9 in ENE 7 mph 12 mph 70.6% 0 in 524 W/m2
12:54 59.4 °F 49.8 °F 29.9 in ENE 5.7 mph 10 mph 70.5% 0 in 540 W/m2
12:59 59.5 °F 49.8 °F 29.9 in NE 7.3 mph 14 mph 70.3% 0 in 512 W/m2
13:04 59.5 °F 50.2 °F 29.9 in NE 6.3 mph 14 mph 71.2% 0 in 654 W/m2
13:09 60.1 °F 50.7 °F 29.9 in NE 7.3 mph 13 mph 71.2% 0 in 775 W/m2
13:14 60.4 °F 50.7 °F 29.9 in ENE 6.3 mph 11 mph 70.4% 0 in 1083 W/m2
13:19 61 °F 51.1 °F 29.9 in NE 7.1 mph 13 mph 70% 0 in 1083 W/m2
13:24 60.8 °F 50.9 °F 29.9 in NE 6.9 mph 13 mph 69.7% 0 in 608 W/m2
13:29 60.6 °F 50.9 °F 29.9 in NE 5.5 mph 12 mph 70% 0 in 533 W/m2
13:34 60.4 °F 50.4 °F 29.9 in ENE 6.4 mph 11 mph 68.9% 0 in 406 W/m2
13:39 60.3 °F 50.2 °F 29.9 in ENE 5.3 mph 10 mph 69.3% 0 in 383 W/m2
13:44 59.9 °F 49.8 °F 29.9 in East 6 mph 12 mph 69% 0 in 390 W/m2
13:49 59.5 °F 49.6 °F 29.9 in East 6.9 mph 12 mph 69.7% 0 in 452 W/m2
13:54 59.5 °F 49.6 °F 29.9 in East 6.3 mph 12 mph 69.8% 0 in 455 W/m2
13:59 59.7 °F 49.8 °F 29.9 in East 6 mph 11 mph 69.8% 0 in 483 W/m2
14:04 59.7 °F 50.2 °F 29.9 in East 5.8 mph 11 mph 70.4% 0 in 496 W/m2
14:09 60.1 °F 50.2 °F 29.9 in ENE 6.5 mph 11 mph 69.9% 0 in 483 W/m2
14:14 60.3 °F 50.2 °F 29.9 in ENE 5.9 mph 10 mph 69.6% 0 in 459 W/m2
14:19 60.3 °F 50 °F 29.9 in ENE 5.2 mph 11 mph 69.1% 0 in 459 W/m2
14:24 60.3 °F 50.2 °F 29.9 in NE 5.8 mph 11 mph 69.3% 0 in 492 W/m2
14:29 60.4 °F 50.4 °F 29.9 in ENE 5.2 mph 10 mph 69.4% 0 in 580 W/m2
14:34 60.4 °F 50.4 °F 29.9 in ENE 5.1 mph 10 mph 69% 0 in 594 W/m2
14:39 60.8 °F 50.4 °F 29.9 in ENE 6.8 mph 10 mph 68.3% 0 in 635 W/m2
14:44 61 °F 50.5 °F 29.9 in ENE 5.3 mph 11 mph 68.4% 0 in 598 W/m2
14:49 61 °F 50.2 °F 29.9 in ENE 6.4 mph 11 mph 67.7% 0 in 355 W/m2
14:54 60.6 °F 50.2 °F 29.9 in ENE 6.8 mph 11 mph 68.7% 0 in 429 W/m2
14:59 60.3 °F 50 °F 29.9 in ENE 6.7 mph 11 mph 69% 0 in 429 W/m2
15:04 60.3 °F 50.2 °F 29.9 in ENE 6.2 mph 11 mph 69.2% 0 in 343 W/m2
15:09 60.3 °F 50.4 °F 29.9 in ENE 5.9 mph 12 mph 70% 0 in 424 W/m2
15:14 60.3 °F 50.7 °F 29.9 in ENE 5.3 mph 12 mph 70.8% 0 in 469 W/m2
15:19 60.4 °F 50.7 °F 29.9 in ENE 7.6 mph 12 mph 70.2% 0 in 476 W/m2
15:24 60.3 °F 50.5 °F 29.9 in ENE 6.6 mph 12 mph 70.4% 0 in 457 W/m2
15:29 60.4 °F 51.1 °F 29.9 in East 5.8 mph 9 mph 71.2% 0 in 408 W/m2
15:34 60.4 °F 51.1 °F 29.9 in NE 5.5 mph 11 mph 71.2% 0 in 410 W/m2
15:39 60.6 °F 50.9 °F 29.9 in NE 5.9 mph 11 mph 70.1% 0 in 401 W/m2
15:44 60.8 °F 50.9 °F 29.9 in ENE 6.1 mph 11 mph 70% 0 in 392 W/m2
15:49 60.4 °F 50 °F 29.9 in ENE 7.1 mph 11 mph 68.3% 0 in 357 W/m2
15:54 60.4 °F 50.2 °F 29.9 in ENE 5.8 mph 10 mph 69% 0 in 381 W/m2
15:59 60.4 °F 50.2 °F 29.9 in ENE 5.6 mph 10 mph 69% 0 in 392 W/m2
16:04 60.4 °F 50 °F 29.9 in NE 6.6 mph 11 mph 68.5% 0 in 388 W/m2
16:09 60.4 °F 50.2 °F 29.9 in NE 5.8 mph 11 mph 68.7% 0 in 364 W/m2
16:14 60.4 °F 50.7 °F 29.9 in ENE 4.7 mph 11 mph 70% 0 in 346 W/m2
16:19 60.4 °F 50.4 °F 29.9 in ENE 6.8 mph 11 mph 69.1% 0 in 323 W/m2
16:24 60.4 °F 50.5 °F 29.9 in ENE 6.1 mph 10 mph 69.7% 0 in 362 W/m2
16:29 60.4 °F 50.5 °F 29.9 in ENE 5.5 mph 10 mph 69.8% 0 in 362 W/m2
16:34 60.4 °F 50.5 °F 29.9 in ENE 6.1 mph 12 mph 69.8% 0 in 360 W/m2
16:39 60.4 °F 50.2 °F 29.9 in ENE 6.6 mph 11 mph 69% 0 in 346 W/m2
North Lincolnshire Weather
Compliments of Weather Underground - 2 mb

Data updates at regular intervals.